Have a Safe July 4th! 

Flight Track Log - Related Links

Times and Time Zones

All times are in EDT time to prevent confusion due to time zone crossing. See the QJE1704 flight status page for this flight to view local times or setup timezone preferences in your user account.

Time Position Orientation Groundspeed Altitude Reporting Facility
EDT Latitude Longitude Course Direction KTS MPH feet Rate Location/Type
Sun 07:03:23 PM -27.4180 153.1094 231° Southwest 4,000  Level Aus ATC (Calculated)
Sun 07:05:48 PM -27.4854 153.0151 North 222 255 6,800 1,573 Climbing Aus ATC (RADAR)
Sun 07:07:08 PM -27.3860 153.0232 North 296 341 9,900 1,890 Climbing Aus ATC (RADAR)
Sun 07:08:49 PM -27.2332 153.0776 18° North 376 433 12,500 1,889 Climbing Aus ATC (RADAR)
Sun 07:10:44 PM -27.0278 153.1504 18° North 412 474 16,700 2,070 Climbing Aus ATC (RADAR)
Sun 07:12:38 PM -26.8264 153.1125 350° North 394 453 20,400 1,841 Climbing Aus ATC (RADAR)
Sun 07:13:53 PM -26.7003 153.0415 333° Northwest 403 464 22,500 1,562 Climbing Aus ATC (RADAR)
Sun 07:15:27 PM -26.5358 152.9472 333° Northwest 421 484 24,800 1,470 Climbing Aus ATC (RADAR)
Sun 07:17:13 PM -26.3511 152.8428 333° Northwest 421 484 27,400 1,333 Climbing Aus ATC (RADAR)
Sun 07:19:12 PM -26.1415 152.7257 333° Northwest 418 481 29,800 1,231 Climbing Aus ATC (RADAR)
Sun 07:21:02 PM -25.9511 152.6197 333° Northwest 408 470 32,100 613 Climbing Aus ATC (RADAR)
Sun 07:22:57 PM -25.7590 152.5101 333° Northwest 403 464 32,100  Level Aus ATC (RADAR)
Sun 07:24:17 PM -25.6233 152.4346 333° Northwest 408 470 32,100  Level Aus ATC (RADAR)
Sun 07:25:46 PM -25.4698 152.3491 333° Northwest 410 472 32,100  Level Aus ATC (RADAR)
Sun 07:27:11 PM -25.3245 152.2698 334° Northwest 411 473 32,100  Level Aus ATC (RADAR)
Sun 07:27:26 PM -25.2989 152.2556 333° Northwest 411 473 32,100  Level Aus ATC (RADAR)
Sun 07:29:02 PM -25.1354 152.1653 333° Northwest 414 476 32,100 -877 Level Aus ATC (RADAR)
Sun 07:31:46 PM -24.8709 151.9808 328° Northwest 411 473 28,300 -1,928 Descending Aus ATC (RADAR)
Sun 07:33:11 PM -24.7406 151.8817 325° Northwest 396 456 24,100 -2,914 Descending Aus ATC (RADAR)
Sun 07:33:31 PM -24.7123 151.8582 323° Northwest 388 447 23,200 -2,661 Descending Aus ATC (RADAR)
Sun 07:35:06 PM -24.5749 151.7506 325° Northwest 385 443 19,000 -2,492 Descending Aus ATC (RADAR)
Sun 07:37:51 PM -24.3495 151.5760 325° Northwest 353 406 12,400 -1,984 Descending Aus ATC (RADAR)
Sun 07:39:20 PM -24.2372 151.4901 325° Northwest 306 352 10,600 -1,402 Descending Aus ATC (RADAR)
Sun 07:40:55 PM -24.1330 151.4086 324° Northwest 290 334 8,100 -1,557 Descending Aus ATC (RADAR)
Sun 07:42:25 PM -24.0237 151.3582 337° Northwest 285 328 5,800 -1,439 Descending Aus ATC (RADAR)
Sun 07:43:46 PM -23.9371 151.3020 329° Northwest 268 308 4,000 -1,029 Descending Aus ATC (RADAR)
Sun 07:45:20 PM -23.8505 151.2496 331° Northwest 210 242 2,800 -698 Descending Aus ATC (RADAR)
Sun 07:46:55 PM -23.8187 151.1774 296° West 161 185 1,800 -700 Descending Aus ATC (RADAR)
Sun 07:48:20 PM -23.8570 151.1849 170° South 147 169 700 -816 Descending Aus ATC (RADAR)
Sun 07:49:00 PM -23.8663 151.2113 111° Southeast 141 162 100 -900 Descending Aus ATC (RADAR)
Sun 07:50:00 PM -23.8697 151.2228 108° East  Level Estimated
Sun 07:57:00 PM -23.8697 151.2228 222° Southwest  Level Estimated
Sun 07:58:00 PM -23.8697 151.2228 222° Southwest  Level Estimated
Sun 07:59:00 PM -23.8697 151.2228 222° Southwest  Level Estimated
Sun 08:00:00 PM -23.8697 151.2228 222° Southwest  Level Estimated
Sun 08:01:00 PM -23.8697 151.2228 222° Southwest  Level Estimated
Sun 08:02:00 PM -23.8697 151.2228 222° Southwest  Level Estimated
Sun 08:03:00 PM -23.8697 151.2228 222° Southwest  Level Estimated

Login

Don't have an account? Register now (free) for customized features, flight alerts, and more!